Search for airport 
image banner adimage banner adimage banner ad
image banner ad

5PA2 - Double D Skyranch

Located in St John's, United States

ICAO - 5PA2, IATA -

Data provided by Airmate  

General information

Coordinates: N41°2'9" W76°1'21"
Elevation is 1140 feet MSL.
Magnetic variation is -11° East
View others Airports in Pennsylvania

Operational data

Special qualification required
Current time UTC:
Current local time:
Weather at : KHZL - Hazleton Rgnl ( 6 km )
METAR: KHZL 091335Z AUTO 00000KT 10SM CLR 08/02 A3008 RMK AO2
View NOTAMs / SUP AIP / TFR affecting this airport [VIEW]
Communications frequencies: [VIEW]

Runways:

RWY identifierQFULength (ft)Width (ft)SurfaceLDA (ft)
081835100GRASS
261835100GRASS

Airport contact information

Address: St John's United States

Satellite view of 5PA2